Time;durP1;ratioP1;P1;durP2;ratioP2;P2;SDS_P1;SDS_P2;PMS_P1;PMS_P2;Temp;Humidity;BMP_temperature;BMP_pressure;BME280_temperature;BME280_humidity;BME280_pressure;Samples;Min_cycle;Max_cycle;Signal;HPM_P1;HPM_P2
2022/01/22 00:01:49;;;;;;;0.40;0.30;;;4.70;99.90;;;;;;5026368;28;20197;-78
2022/01/22 00:04:16;;;;;;;0.40;0.40;;;4.80;99.90;;;;;;5025095;28;20760;-78
2022/01/22 00:06:44;;;;;;;1.38;1.25;;;4.80;99.90;;;;;;5025051;28;20196;-77
2022/01/22 00:09:11;;;;;;;0.40;0.40;;;4.80;99.90;;;;;;5025371;28;20229;-78
2022/01/22 00:11:41;;;;;;;1.88;1.77;;;4.80;99.90;;;;;;5024461;28;20755;-77
2022/01/22 00:14:26;;;;;;;0.40;0.40;;;4.80;99.90;;;;;;5023728;28;20220;-79
2022/01/22 00:16:55;;;;;;;3.45;1.20;;;4.80;99.90;;;;;;5014656;28;20204;-79
2022/01/22 00:19:23;;;;;;;0.40;0.40;;;4.80;99.90;;;;;;5014812;28;20200;-79
2022/01/22 00:21:51;;;;;;;0.70;0.70;;;4.80;99.90;;;;;;5014716;28;20196;-80
2022/01/22 00:24:19;;;;;;;0.40;0.40;;;4.80;99.90;;;;;;5013469;28;20579;-79
2022/01/22 00:26:47;;;;;;;0.40;0.30;;;4.80;99.90;;;;;;5014290;28;20204;-79
2022/01/22 00:29:16;;;;;;;0.40;0.30;;;4.90;99.90;;;;;;5014403;28;20205;-79
2022/01/22 00:31:42;;;;;;;0.40;0.40;;;4.90;99.90;;;;;;5014727;28;20216;-77
2022/01/22 00:34:10;;;;;;;2.45;1.02;;;4.90;99.90;;;;;;5014530;28;20263;-79
2022/01/22 00:36:39;;;;;;;9.15;2.95;;;4.90;99.90;;;;;;5014534;28;20199;-79
2022/01/22 00:39:07;;;;;;;1.60;1.50;;;4.90;99.90;;;;;;5014390;28;20204;-76
2022/01/22 00:41:34;;;;;;;2.65;1.38;;;4.90;99.90;;;;;;5013992;28;20199;-78
2022/01/22 00:44:01;;;;;;;1.20;1.10;;;4.80;99.90;;;;;;5014451;28;20222;-79
2022/01/22 00:46:28;;;;;;;5.45;3.63;;;4.80;99.90;;;;;;5013945;28;20223;-79
2022/01/22 00:48:55;;;;;;;0.65;0.65;;;4.80;99.90;;;;;;5014236;28;20196;-79
2022/01/22 00:51:22;;;;;;;0.50;0.40;;;4.80;99.90;;;;;;5014754;28;20227;-78
2022/01/22 00:53:49;;;;;;;3.25;2.15;;;4.80;99.90;;;;;;5014587;28;20216;-78
2022/01/22 00:56:17;;;;;;;1.27;1.13;;;4.80;99.90;;;;;;5015026;28;20196;-79
2022/01/22 00:58:44;;;;;;;0.40;0.40;;;4.80;99.90;;;;;;5014533;28;20200;-77
2022/01/22 01:01:11;;;;;;;0.40;0.40;;;4.80;99.90;;;;;;5014097;28;20188;-79
2022/01/22 01:03:38;;;;;;;0.40;0.40;;;4.80;99.90;;;;;;5014231;28;20227;-80
2022/01/22 01:06:06;;;;;;;0.40;0.40;;;4.80;99.90;;;;;;5014692;28;20575;-80
2022/01/22 01:08:35;;;;;;;0.50;0.40;;;4.80;99.90;;;;;;5014283;28;20200;-79
2022/01/22 01:11:03;;;;;;;0.55;0.55;;;4.80;99.90;;;;;;5014017;28;20616;-79
2022/01/22 01:13:37;;;;;;;2.70;2.15;;;4.80;99.90;;;;;;5013804;28;20701;-75
2022/01/22 01:16:16;;;;;;;0.40;0.40;;;4.80;99.90;;;;;;5014121;28;20215;-79
2022/01/22 01:32:36;;;;;;;0.70;0.70;;;4.80;99.90;;;;;;5013418;28;20230;-77
2022/01/22 01:35:06;;;;;;;0.40;0.40;;;4.70;99.90;;;;;;5013720;28;20191;-79
2022/01/22 01:37:33;;;;;;;5.88;2.75;;;4.70;99.90;;;;;;5014132;28;20209;-79
2022/01/22 01:40:03;;;;;;;2.78;1.98;;;4.70;99.90;;;;;;5013239;28;20195;-79
2022/01/22 01:42:37;;;;;;;3.65;3.33;;;4.70;99.90;;;;;;5013458;28;20219;-80
2022/01/22 01:45:07;;;;;;;1.77;1.10;;;4.70;99.90;;;;;;5014360;28;20188;-79
2022/01/22 01:47:37;;;;;;;8.98;3.47;;;4.70;99.90;;;;;;5013956;28;20176;-76
2022/01/22 01:50:05;;;;;;;2.58;1.80;;;4.70;99.90;;;;;;5013342;28;20203;-79
2022/01/22 01:52:38;;;;;;;0.40;0.40;;;4.70;99.90;;;;;;5013140;28;20216;-79
2022/01/22 01:55:11;;;;;;;0.95;0.95;;;4.70;99.90;;;;;;5014631;28;20234;-80
2022/01/22 01:57:38;;;;;;;0.75;0.75;;;4.70;99.90;;;;;;5014471;28;20258;-79
2022/01/22 02:00:10;;;;;;;0.40;0.35;;;4.70;99.90;;;;;;5014064;28;20247;-78
2022/01/22 02:02:38;;;;;;;2.78;1.40;;;4.70;99.90;;;;;;5014107;28;20173;-79
2022/01/22 02:05:08;;;;;;;2.20;2.03;;;4.70;99.90;;;;;;5013337;28;20199;-79
2022/01/22 02:07:38;;;;;;;1.92;1.83;;;4.70;99.90;;;;;;5014059;28;20235;-78
2022/01/22 02:10:05;;;;;;;1.05;0.98;;;4.70;99.90;;;;;;5013969;28;20204;-80
2022/01/22 02:12:57;;;;;;;2.50;2.33;;;4.70;99.90;;;;;;5013629;28;20286;-79
2022/01/22 02:23:43;;;;;;;3.70;1.27;;;4.70;99.90;;;;;;5012642;28;20226;-79
2022/01/22 02:26:12;;;;;;;0.45;0.40;;;4.70;99.90;;;;;;5013143;28;20967;-79
2022/01/22 02:28:40;;;;;;;1.20;1.17;;;4.70;99.90;;;;;;5012894;28;20204;-78
2022/01/22 02:31:12;;;;;;;0.40;0.40;;;4.70;99.90;;;;;;5012915;28;20227;-79
2022/01/22 02:33:49;;;;;;;2.15;1.45;;;4.70;99.90;;;;;;5012882;28;20219;-79
2022/01/22 02:36:21;;;;;;;1.70;1.70;;;4.70;99.90;;;;;;5013857;28;20244;-79
2022/01/22 02:38:54;;;;;;;0.82;0.82;;;4.70;99.90;;;;;;5013181;28;20255;-77
2022/01/22 02:41:24;;;;;;;0.40;0.40;;;4.70;99.90;;;;;;5012517;28;20196;-78
2022/01/22 02:43:52;;;;;;;1.77;1.67;;;4.70;99.90;;;;;;5012956;28;20258;-78
2022/01/22 02:46:22;;;;;;;4.50;2.55;;;4.70;99.90;;;;;;5013120;28;20307;-78
2022/01/22 02:48:49;;;;;;;0.40;0.30;;;4.80;99.90;;;;;;5015817;28;20683;-79
2022/01/22 02:51:16;;;;;;;2.25;1.02;;;4.70;99.90;;;;;;5016948;28;20219;-79
2022/01/22 02:53:42;;;;;;;1.48;1.40;;;4.70;99.90;;;;;;5016319;28;20216;-79
2022/01/22 02:56:11;;;;;;;2.47;2.28;;;4.70;99.90;;;;;;5016533;28;20203;-79
2022/01/22 02:58:38;;;;;;;2.35;2.25;;;4.80;99.90;;;;;;5017654;28;20196;-76
2022/01/22 03:01:05;;;;;;;0.40;0.30;;;4.80;99.90;;;;;;5017035;28;20204;-78
2022/01/22 03:03:32;;;;;;;1.30;1.20;;;4.80;99.90;;;;;;5017166;28;20223;-77
2022/01/22 03:06:01;;;;;;;2.95;2.85;;;4.80;99.90;;;;;;5016993;28;20196;-79
2022/01/22 03:08:29;;;;;;;4.50;3.65;;;4.80;99.90;;;;;;5016681;28;20195;-79
2022/01/22 03:10:56;;;;;;;0.40;0.38;;;4.80;99.90;;;;;;5016967;28;20577;-79
2022/01/22 03:16:27;;;;;;;1.40;1.30;;;4.80;99.90;;;;;;4983566;28;20204;-79
2022/01/22 03:18:59;;;;;;;0.40;0.30;;;4.80;99.90;;;;;;5016890;28;20593;-80
2022/01/22 03:21:37;;;;;;;2.08;1.20;;;4.80;99.90;;;;;;5017235;28;20214;-80
2022/01/22 03:29:37;;;;;;;1.02;0.88;;;4.90;99.90;;;;;;5016157;28;20219;-79
2022/01/22 03:32:06;;;;;;;0.88;0.88;;;4.80;99.90;;;;;;5016361;28;20282;-79
2022/01/22 03:34:39;;;;;;;0.50;0.50;;;4.90;99.90;;;;;;5016519;28;20212;-75
2022/01/22 03:37:06;;;;;;;0.60;0.60;;;4.90;99.90;;;;;;5016686;28;20291;-79
2022/01/22 03:39:33;;;;;;;1.15;1.15;;;4.80;99.90;;;;;;5015783;28;20196;-78
2022/01/22 03:42:00;;;;;;;0.50;0.50;;;4.80;99.90;;;;;;5015747;28;20204;-79
2022/01/22 03:44:27;;;;;;;0.50;0.50;;;4.90;99.90;;;;;;5016069;28;20212;-80
2022/01/22 03:46:55;;;;;;;0.70;0.70;;;4.90;99.90;;;;;;5016363;28;20204;-79
2022/01/22 03:49:21;;;;;;;1.58;1.58;;;4.90;99.90;;;;;;5015798;28;20196;-78
2022/01/22 03:51:48;;;;;;;0.80;0.80;;;4.90;99.90;;;;;;5016246;28;20219;-79
2022/01/22 03:54:15;;;;;;;0.80;0.70;;;4.90;99.90;;;;;;5016119;28;20216;-80
2022/01/22 03:56:45;;;;;;;0.77;0.75;;;4.90;99.90;;;;;;5016514;28;20201;-80
2022/01/22 03:59:13;;;;;;;17.75;2.45;;;4.90;99.90;;;;;;5015983;28;20292;-79
2022/01/22 04:04:30;;;;;;;1.77;1.25;;;4.90;99.90;;;;;;5015825;28;20294;-79
2022/01/22 04:09:45;;;;;;;0.40;0.30;;;4.90;99.90;;;;;;5008117;28;20557;-79
2022/01/22 04:12:14;;;;;;;10.48;3.50;;;5.00;99.90;;;;;;5016518;28;20306;-78
2022/01/22 04:14:47;;;;;;;0.45;0.45;;;4.90;99.90;;;;;;5015361;28;20310;-80
2022/01/22 04:17:24;;;;;;;3.50;3.28;;;4.90;99.90;;;;;;5016378;28;20200;-79
2022/01/22 04:25:25;;;;;;;2.05;1.95;;;5.00;99.90;;;;;;5015723;28;20241;-80
2022/01/22 04:27:53;;;;;;;7.15;3.22;;;5.00;99.90;;;;;;5016335;28;20200;-79
2022/01/22 04:30:21;;;;;;;0.40;0.40;;;5.00;99.90;;;;;;5015152;28;20196;-79
2022/01/22 04:32:49;;;;;;;0.40;0.40;;;5.00;99.90;;;;;;5016083;28;20243;-80
2022/01/22 04:35:18;;;;;;;0.40;0.40;;;5.00;99.90;;;;;;5015644;28;20626;-80
2022/01/22 04:37:45;;;;;;;0.60;0.60;;;5.00;99.90;;;;;;5015332;28;20282;-79
2022/01/22 04:40:12;;;;;;;3.60;3.30;;;5.00;99.90;;;;;;5015490;28;20586;-79
2022/01/22 04:42:41;;;;;;;0.40;0.30;;;5.10;99.90;;;;;;5015008;28;20192;-80
2022/01/22 04:45:16;;;;;;;3.28;3.08;;;5.00;99.90;;;;;;5015009;28;20593;-78
2022/01/22 04:47:51;;;;;;;0.40;0.40;;;5.10;99.90;;;;;;5015732;28;20602;-79
2022/01/22 04:55:48;;;;;;;3.60;3.40;;;5.10;99.90;;;;;;5015516;28;20192;-80
2022/01/22 04:58:15;;;;;;;0.40;0.40;;;5.10;99.90;;;;;;5015753;28;20226;-79
2022/01/22 05:00:45;;;;;;;2.65;2.55;;;5.10;99.90;;;;;;5015180;28;20196;-76
2022/01/22 05:03:13;;;;;;;4.15;2.42;;;5.10;99.90;;;;;;5016340;28;20212;-79
2022/01/22 05:05:41;;;;;;;1.30;0.82;;;5.10;99.90;;;;;;5015366;28;20198;-79
2022/01/22 05:08:07;;;;;;;11.38;4.95;;;5.10;99.90;;;;;;5016071;28;20196;-79
2022/01/22 05:10:34;;;;;;;2.13;2.03;;;5.10;99.90;;;;;;5014408;28;20211;-79
2022/01/22 05:13:01;;;;;;;0.40;0.40;;;5.10;99.90;;;;;;5015514;28;20227;-79
2022/01/22 05:15:28;;;;;;;1.27;1.20;;;5.10;99.90;;;;;;5015221;28;20204;-79
2022/01/22 05:17:56;;;;;;;1.70;1.60;;;5.10;99.90;;;;;;5015360;28;20206;-80
2022/01/22 05:20:27;;;;;;;0.40;0.30;;;5.10;99.90;;;;;;5014525;28;20292;-79
2022/01/22 05:23:00;;;;;;;0.50;0.50;;;5.10;99.90;;;;;;5015677;28;20252;-79
2022/01/22 05:25:32;;;;;;;1.58;1.30;;;5.10;99.90;;;;;;5016002;28;20433;-80
2022/01/22 05:28:15;;;;;;;2.85;2.25;;;5.10;99.90;;;;;;5015509;28;20177;-79
2022/01/22 05:31:01;;;;;;;0.40;0.30;;;5.10;99.90;;;;;;5014428;28;20205;-76
2022/01/22 05:36:54;;;;;;;1.70;1.63;;;5.10;99.90;;;;;;5015141;28;20223;-79
2022/01/22 05:39:09;;;;;;;0.88;0.88;;;5.20;99.90;;;;;;5014645;28;20266;-79
2022/01/22 05:41:37;;;;;;;0.40;0.38;;;5.20;99.90;;;;;;5014916;28;20246;-79
2022/01/22 05:44:04;;;;;;;1.30;1.20;;;5.20;99.90;;;;;;5015306;28;20456;-77
2022/01/22 05:46:31;;;;;;;2.80;1.60;;;5.20;99.90;;;;;;5015116;28;20565;-79
2022/01/22 05:48:58;;;;;;;0.40;0.30;;;5.20;99.90;;;;;;5015299;28;20280;-77
2022/01/22 05:51:25;;;;;;;0.65;0.65;;;5.20;99.90;;;;;;5013947;28;20225;-79
2022/01/22 05:54:15;;;;;;;0.40;0.40;;;5.20;99.90;;;;;;5012665;28;20215;-79
2022/01/22 05:59:37;;;;;;;1.05;1.05;;;5.20;99.90;;;;;;5013646;28;20214;-79
2022/01/22 06:02:05;;;;;;;0.50;0.50;;;5.20;99.90;;;;;;5013401;28;20272;-80
2022/01/22 06:04:32;;;;;;;1.13;1.13;;;5.20;99.90;;;;;;5012996;28;20220;-80
2022/01/22 06:06:58;;;;;;;0.60;0.60;;;5.20;99.90;;;;;;5013166;28;20570;-79
2022/01/22 06:09:26;;;;;;;0.98;0.65;;;5.20;99.90;;;;;;5012536;28;20207;-79
2022/01/22 06:11:57;;;;;;;1.83;1.70;;;5.20;99.90;;;;;;5013158;28;20687;-80
2022/01/22 06:14:24;;;;;;;0.40;0.30;;;5.20;99.90;;;;;;5013556;28;20581;-79
2022/01/22 06:16:51;;;;;;;0.40;0.40;;;5.20;99.90;;;;;;5013043;28;20250;-79
2022/01/22 06:19:18;;;;;;;0.75;0.70;;;5.20;99.90;;;;;;5012482;28;20199;-78
2022/01/22 06:21:45;;;;;;;0.40;0.30;;;5.20;99.90;;;;;;5014545;28;20207;-77
2022/01/22 06:24:12;;;;;;;1.90;1.85;;;5.30;99.90;;;;;;5017223;28;20227;-79
2022/01/22 06:26:40;;;;;;;3.08;2.15;;;5.30;99.90;;;;;;5016719;28;20195;-79
2022/01/22 06:29:08;;;;;;;2.15;2.05;;;5.30;99.90;;;;;;5016845;28;20197;-79
2022/01/22 06:31:35;;;;;;;2.20;2.05;;;5.30;99.90;;;;;;5016697;28;20204;-79
2022/01/22 06:34:02;;;;;;;0.40;0.40;;;5.30;99.90;;;;;;5017472;28;20223;-79
2022/01/22 06:36:29;;;;;;;0.40;0.30;;;5.30;99.90;;;;;;5016798;28;20191;-79
2022/01/22 06:38:59;;;;;;;3.30;3.10;;;5.30;99.90;;;;;;5016651;28;20196;-79
2022/01/22 06:44:13;;;;;;;1.17;1.10;;;5.30;99.90;;;;;;5019300;28;20207;-78
2022/01/22 06:46:40;;;;;;;0.40;0.30;;;5.30;99.90;;;;;;5018542;28;20226;-79
2022/01/22 06:49:07;;;;;;;0.50;0.50;;;5.30;99.90;;;;;;5016273;28;20205;-79
2022/01/22 06:51:34;;;;;;;0.40;0.30;;;5.30;99.90;;;;;;5016466;28;20192;-79
2022/01/22 06:54:01;;;;;;;1.95;1.05;;;5.30;99.90;;;;;;5016262;28;20219;-80
2022/01/22 06:56:29;;;;;;;0.47;0.47;;;5.30;99.90;;;;;;5016622;28;20199;-79
2022/01/22 06:58:57;;;;;;;0.70;0.70;;;5.30;99.90;;;;;;5016253;28;20290;-79
2022/01/22 07:01:26;;;;;;;6.40;1.98;;;5.30;99.90;;;;;;5016684;28;20346;-78
2022/01/22 07:03:53;;;;;;;0.50;0.50;;;5.30;99.90;;;;;;5016153;28;20212;-77
2022/01/22 07:06:21;;;;;;;0.50;0.50;;;5.30;99.90;;;;;;5015965;28;20199;-79
2022/01/22 07:08:47;;;;;;;4.93;1.92;;;5.30;99.90;;;;;;5016162;28;20231;-75
2022/01/22 07:11:14;;;;;;;2.50;1.40;;;5.30;99.90;;;;;;5016113;28;20203;-76
2022/01/22 07:13:41;;;;;;;0.60;0.60;;;5.30;99.90;;;;;;5016174;28;20225;-79
2022/01/22 07:16:08;;;;;;;0.52;0.52;;;5.30;99.90;;;;;;5016217;28;20679;-81
2022/01/22 07:18:36;;;;;;;2.55;2.20;;;5.30;99.90;;;;;;5016175;28;20200;-79
2022/01/22 07:21:13;;;;;;;0.75;0.75;;;5.30;99.90;;;;;;5015645;28;20193;-79
2022/01/22 07:24:06;;;;;;;0.50;0.50;;;5.30;99.90;;;;;;5015751;28;20313;-79
2022/01/22 07:26:31;;;;;;;1.60;1.50;;;5.30;99.90;;;;;;5016965;28;20259;-79
2022/01/22 07:28:59;;;;;;;0.40;0.32;;;5.40;99.90;;;;;;5016419;28;20196;-79
2022/01/22 07:31:26;;;;;;;0.90;0.90;;;5.40;99.90;;;;;;5016758;28;20203;-81
2022/01/22 07:33:55;;;;;;;0.40;0.40;;;5.40;99.90;;;;;;5016284;28;20270;-81
2022/01/22 07:36:21;;;;;;;0.57;0.57;;;5.40;99.90;;;;;;5017924;28;20198;-82
2022/01/22 07:38:48;;;;;;;1.08;1.05;;;5.40;99.90;;;;;;5017334;28;20198;-79
2022/01/22 07:41:16;;;;;;;4.57;4.13;;;5.40;99.90;;;;;;5017925;28;20203;-80
2022/01/22 07:43:43;;;;;;;0.70;0.70;;;5.40;99.90;;;;;;5017278;28;20216;-80
2022/01/22 07:46:10;;;;;;;0.65;0.65;;;5.40;99.90;;;;;;5017542;28;20199;-81
2022/01/22 07:48:37;;;;;;;0.40;0.30;;;5.50;99.90;;;;;;5017784;28;20207;-79
2022/01/22 07:51:05;;;;;;;2.03;1.88;;;5.50;99.90;;;;;;5017448;28;20196;-80
2022/01/22 07:53:31;;;;;;;0.40;0.30;;;5.50;99.90;;;;;;5017795;28;20229;-78
2022/01/22 07:55:58;;;;;;;1.80;1.70;;;5.60;99.90;;;;;;5017592;28;20201;-80
2022/01/22 07:58:25;;;;;;;1.08;1.08;;;5.60;99.90;;;;;;5017319;28;20209;-80
2022/01/22 08:00:52;;;;;;;0.40;0.30;;;5.60;99.90;;;;;;5016875;28;20196;-80
2022/01/22 08:03:18;;;;;;;5.55;2.70;;;5.60;99.90;;;;;;5017561;28;20232;-80
2022/01/22 08:05:45;;;;;;;3.63;1.55;;;5.70;99.90;;;;;;5017311;28;20204;-81
2022/01/22 08:08:13;;;;;;;0.73;0.73;;;5.70;99.90;;;;;;5017472;28;20201;-80
2022/01/22 08:10:40;;;;;;;0.88;0.88;;;5.70;99.90;;;;;;5016566;28;20203;-80
2022/01/22 08:13:07;;;;;;;0.40;0.40;;;5.70;99.90;;;;;;5017232;28;20238;-81
2022/01/22 08:15:33;;;;;;;0.85;0.85;;;5.70;99.90;;;;;;5017071;28;20280;-80
2022/01/22 08:18:02;;;;;;;0.40;0.30;;;5.70;99.90;;;;;;5017357;28;20196;-80
2022/01/22 08:20:29;;;;;;;1.05;1.05;;;5.70;99.90;;;;;;5016803;28;20200;-80
2022/01/22 08:22:56;;;;;;;0.65;0.65;;;5.70;99.90;;;;;;5016481;28;20224;-80
2022/01/22 08:25:25;;;;;;;0.50;0.50;;;5.80;99.90;;;;;;5017988;28;20180;-80
2022/01/22 08:30:37;;;;;;;0.60;0.60;;;5.80;99.90;;;;;;5016603;28;20203;-81
2022/01/22 08:33:31;;;;;;;1.45;1.35;;;5.80;99.90;;;;;;5016245;28;20701;-81
2022/01/22 08:35:55;;;;;;;1.05;1.05;;;5.80;99.90;;;;;;5016600;28;20254;-81
2022/01/22 08:38:25;;;;;;;2.53;2.43;;;5.90;99.90;;;;;;5016974;28;20221;-81
2022/01/22 08:40:53;;;;;;;0.50;0.40;;;5.90;99.90;;;;;;5016792;28;20443;-79
2022/01/22 08:43:20;;;;;;;0.50;0.50;;;6.00;99.90;;;;;;5016389;28;20220;-81
2022/01/22 08:45:49;;;;;;;0.40;0.40;;;6.00;99.90;;;;;;5016340;28;20219;-81
2022/01/22 08:48:16;;;;;;;0.50;0.30;;;6.00;99.90;;;;;;5016677;28;20202;-80
2022/01/22 08:50:43;;;;;;;2.78;2.03;;;6.10;99.90;;;;;;5016790;28;20210;-76
2022/01/22 08:53:10;;;;;;;0.50;0.50;;;6.10;99.90;;;;;;5016923;28;20229;-80
2022/01/22 08:55:37;;;;;;;0.40;0.40;;;6.20;99.90;;;;;;5016669;28;20701;-77
2022/01/22 08:58:08;;;;;;;0.40;0.40;;;6.20;99.90;;;;;;5016777;28;20207;-80
2022/01/22 09:00:35;;;;;;;0.50;0.38;;;6.10;99.90;;;;;;5016631;28;20211;-80
2022/01/22 09:03:02;;;;;;;0.40;0.40;;;6.10;99.90;;;;;;5016277;28;20212;-81
2022/01/22 09:05:34;;;;;;;0.50;0.30;;;6.20;99.90;;;;;;5016825;28;20192;-80
2022/01/22 09:08:00;;;;;;;2.15;2.05;;;6.20;99.90;;;;;;5015332;28;20264;-81
2022/01/22 09:10:27;;;;;;;0.80;0.80;;;6.10;99.90;;;;;;5015524;28;20203;-81
2022/01/22 09:12:54;;;;;;;0.40;0.30;;;6.10;99.90;;;;;;5015958;28;20222;-81
2022/01/22 09:15:22;;;;;;;1.25;1.15;;;6.10;99.90;;;;;;5016207;28;20205;-80
2022/01/22 09:17:49;;;;;;;1.70;1.67;;;6.10;99.90;;;;;;5016515;28;20288;-80
2022/01/22 09:20:30;;;;;;;1.45;1.45;;;6.00;99.90;;;;;;5015673;28;20197;-81
2022/01/22 09:22:58;;;;;;;0.50;0.40;;;6.00;99.90;;;;;;5015702;28;20230;-81
2022/01/22 09:25:25;;;;;;;2.65;1.08;;;6.00;99.90;;;;;;5069662;22;20220;-78
2022/01/22 09:27:51;;;;;;;0.40;0.40;;;6.00;99.90;;;;;;5024668;28;20203;-77
2022/01/22 09:30:18;;;;;;;0.50;0.40;;;6.00;99.90;;;;;;5032630;28;20211;-77
2022/01/22 09:32:46;;;;;;;0.40;0.30;;;6.00;99.90;;;;;;5032335;28;20696;-76
2022/01/22 09:35:13;;;;;;;1.45;1.38;;;6.10;99.90;;;;;;5032691;28;20669;-77
2022/01/22 09:37:40;;;;;;;0.45;0.45;;;6.00;99.90;;;;;;5031976;28;20195;-76
2022/01/22 09:40:08;;;;;;;0.57;0.57;;;6.00;99.90;;;;;;5031493;28;20200;-77
2022/01/22 09:42:35;;;;;;;0.50;0.50;;;6.00;99.90;;;;;;5030722;28;20195;-76
2022/01/22 09:45:02;;;;;;;1.88;1.77;;;6.00;99.90;;;;;;5031600;28;20229;-77
2022/01/22 09:47:29;;;;;;;0.40;0.40;;;6.00;99.90;;;;;;5031350;28;20196;-77
2022/01/22 09:49:58;;;;;;;0.50;0.40;;;6.00;99.90;;;;;;5031228;28;20199;-78
2022/01/22 09:52:25;;;;;;;0.50;0.40;;;6.00;99.90;;;;;;5031565;28;20199;-77
2022/01/22 09:54:52;;;;;;;0.40;0.40;;;6.00;99.90;;;;;;5031527;28;20217;-78
2022/01/22 09:57:20;;;;;;;4.35;1.85;;;6.10;99.90;;;;;;5031505;28;20210;-77
2022/01/22 09:59:47;;;;;;;0.40;0.30;;;6.10;99.90;;;;;;5031583;28;20292;-78
2022/01/22 10:02:15;;;;;;;0.50;0.50;;;6.10;99.90;;;;;;5031454;28;20208;-78
2022/01/22 10:04:45;;;;;;;3.25;1.67;;;6.10;99.90;;;;;;5031639;28;20205;-77
2022/01/22 10:07:18;;;;;;;3.80;1.73;;;6.10;99.90;;;;;;5032288;28;20197;-76
2022/01/22 10:10:00;;;;;;;0.40;0.40;;;6.20;99.90;;;;;;5032211;28;20565;-77
2022/01/22 10:12:29;;;;;;;1.02;1.02;;;6.30;99.90;;;;;;5032886;28;20201;-77
2022/01/22 10:15:09;;;;;;;1.00;0.95;;;6.30;99.90;;;;;;5031907;28;20220;-77
2022/01/22 10:17:40;;;;;;;1.25;1.25;;;6.40;99.90;;;;;;5032521;28;20199;-77
2022/01/22 10:20:27;;;;;;;1.58;1.48;;;6.40;99.90;;;;;;5032294;28;20191;-77
2022/01/22 10:22:59;;;;;;;0.40;0.40;;;6.40;99.90;;;;;;5031227;28;20245;-78
2022/01/22 10:25:29;;;;;;;1.05;1.05;;;6.50;99.90;;;;;;5031411;28;20234;-77
2022/01/22 10:27:57;;;;;;;1.67;1.48;;;6.50;99.90;;;;;;5030896;28;20206;-78
2022/01/22 10:30:34;;;;;;;2.83;2.70;;;6.50;99.90;;;;;;5031260;28;20199;-78
2022/01/22 10:33:07;;;;;;;0.40;0.30;;;6.60;99.90;;;;;;5031104;28;20178;-78
2022/01/22 10:35:35;;;;;;;0.40;0.30;;;6.60;99.90;;;;;;5031173;28;20585;-78
2022/01/22 10:38:05;;;;;;;0.40;0.30;;;6.70;99.90;;;;;;5031268;28;20200;-78
2022/01/22 10:40:34;;;;;;;3.35;3.05;;;6.70;99.90;;;;;;5030743;28;20197;-77
2022/01/22 10:43:21;;;;;;;0.40;0.40;;;6.70;99.90;;;;;;5030497;28;20287;-78
2022/01/22 10:46:02;;;;;;;1.50;1.50;;;6.70;99.90;;;;;;5030817;28;20217;-77
2022/01/22 10:48:28;;;;;;;2.65;2.55;;;6.80;99.90;;;;;;5030624;28;20263;-78
2022/01/22 10:51:05;;;;;;;0.50;0.50;;;6.80;99.90;;;;;;5030739;28;20202;-78
2022/01/22 10:53:43;;;;;;;0.40;0.38;;;6.90;99.90;;;;;;5032911;28;20220;-78
2022/01/22 10:56:11;;;;;;;0.68;0.68;;;7.00;99.90;;;;;;5030826;28;20597;-77
2022/01/22 10:58:53;;;;;;;0.50;0.50;;;7.10;99.90;;;;;;5031037;28;20202;-77
2022/01/22 11:01:22;;;;;;;0.40;0.40;;;7.20;99.90;;;;;;5031011;28;20218;-78
2022/01/22 11:04:01;;;;;;;3.00;1.48;;;7.20;99.90;;;;;;5030897;28;20569;-77
2022/01/22 11:06:28;;;;;;;0.40;0.40;;;7.10;99.90;;;;;;5030616;28;20221;-77
2022/01/22 11:08:56;;;;;;;0.50;0.50;;;7.10;99.90;;;;;;5032042;28;20204;-78
2022/01/22 11:11:24;;;;;;;0.40;0.40;;;7.10;99.90;;;;;;5034151;28;20200;-78
2022/01/22 11:13:51;;;;;;;5.72;2.08;;;7.10;99.90;;;;;;5034299;28;20644;-77
2022/01/22 11:16:19;;;;;;;0.98;0.88;;;7.00;99.90;;;;;;5034662;28;20235;-78
2022/01/22 11:18:49;;;;;;;2.63;2.50;;;6.80;99.90;;;;;;5033834;28;20243;-75
2022/01/22 11:21:17;;;;;;;0.40;0.30;;;6.80;99.90;;;;;;5033849;28;20285;-77
2022/01/22 11:23:44;;;;;;;0.40;0.30;;;6.80;99.90;;;;;;5034150;28;20855;-78
2022/01/22 11:26:14;;;;;;;0.40;0.40;;;6.90;99.90;;;;;;5033820;28;20612;-77
2022/01/22 11:28:41;;;;;;;0.93;0.93;;;7.10;99.90;;;;;;5034074;28;20694;-78
2022/01/22 11:31:11;;;;;;;0.40;0.40;;;7.20;99.90;;;;;;5033320;28;20695;-77
2022/01/22 11:33:41;;;;;;;1.25;1.15;;;7.10;99.90;;;;;;5033655;28;20228;-78
2022/01/22 11:36:17;;;;;;;0.70;0.70;;;7.20;99.90;;;;;;5033949;28;20218;-78
2022/01/22 11:38:52;;;;;;;0.40;0.38;;;7.20;99.90;;;;;;5033799;28;20175;-77
2022/01/22 11:41:21;;;;;;;0.50;0.40;;;7.20;99.90;;;;;;5033388;28;20187;-77
2022/01/22 11:44:01;;;;;;;0.40;0.40;;;7.20;99.90;;;;;;5033738;28;20289;-77
2022/01/22 11:46:32;;;;;;;1.23;1.13;;;7.10;99.90;;;;;;5033708;28;20233;-77
2022/01/22 11:49:18;;;;;;;0.52;0.40;;;7.10;99.90;;;;;;5033153;28;20666;-77
2022/01/22 11:51:46;;;;;;;0.40;0.40;;;7.00;99.90;;;;;;5033076;28;20215;-78
2022/01/22 11:54:15;;;;;;;1.80;1.15;;;6.90;99.90;;;;;;5033633;28;20220;-78
2022/01/22 11:56:46;;;;;;;2.50;0.70;;;6.90;99.90;;;;;;5033606;28;20569;-78
2022/01/22 11:59:27;;;;;;;0.40;0.40;;;6.80;99.90;;;;;;5033218;28;20234;-77
2022/01/22 12:01:56;;;;;;;0.50;0.40;;;6.80;99.90;;;;;;5032991;28;20183;-78
2022/01/22 12:04:25;;;;;;;1.08;1.02;;;6.80;99.90;;;;;;5032942;28;20260;-76
2022/01/22 12:07:11;;;;;;;0.40;0.40;;;6.90;99.90;;;;;;5033110;28;20228;-78
2022/01/22 12:09:43;;;;;;;1.88;1.77;;;7.00;99.90;;;;;;5033863;28;20198;-78
2022/01/22 12:15:23;;;;;;;0.40;0.40;;;7.10;99.90;;;;;;5026041;28;20251;-78
2022/01/22 12:18:12;;;;;;;2.10;0.85;;;7.10;99.90;;;;;;5032603;28;20202;-77
2022/01/22 12:24:00;;;;;;;3.47;3.10;;;7.00;99.90;;;;;;5033201;28;20177;-77
2022/01/22 12:26:46;;;;;;;0.50;0.40;;;6.90;99.90;;;;;;4997364;28;20229;-77
2022/01/22 12:29:38;;;;;;;0.40;0.40;;;6.80;99.90;;;;;;5031895;28;20201;-77
2022/01/22 12:32:07;;;;;;;0.50;0.40;;;6.80;99.90;;;;;;5032932;28;20199;-76
2022/01/22 12:34:53;;;;;;;0.40;0.40;;;6.80;99.90;;;;;;5032299;28;20702;-76
2022/01/22 12:37:21;;;;;;;0.40;0.40;;;6.80;99.90;;;;;;5032393;28;20206;-77
2022/01/22 12:39:51;;;;;;;0.40;0.40;;;6.80;99.90;;;;;;5032499;28;20205;-77
2022/01/22 12:42:26;;;;;;;0.40;0.40;;;6.80;99.90;;;;;;5032508;28;20596;-78
2022/01/22 12:44:59;;;;;;;3.50;3.20;;;6.80;99.90;;;;;;5032766;28;20211;-77
2022/01/22 12:47:28;;;;;;;0.40;0.40;;;6.80;99.90;;;;;;5032026;28;20201;-77
2022/01/22 12:50:00;;;;;;;0.50;0.40;;;6.70;99.90;;;;;;5032215;28;20197;-77
2022/01/22 12:52:28;;;;;;;0.40;0.40;;;6.70;99.90;;;;;;5032704;28;20198;-77
2022/01/22 12:54:58;;;;;;;0.65;0.65;;;6.70;99.90;;;;;;5032144;28;20225;-76
2022/01/22 12:57:27;;;;;;;0.70;0.70;;;6.80;99.90;;;;;;5032331;28;20572;-76
2022/01/22 13:00:01;;;;;;;2.35;0.60;;;6.80;99.90;;;;;;5032229;28;20191;-77
2022/01/22 13:02:38;;;;;;;0.40;0.40;;;6.80;99.90;;;;;;5031983;28;20281;-76
2022/01/22 13:05:06;;;;;;;0.60;0.60;;;6.80;99.90;;;;;;5032064;28;20235;-77
2022/01/22 13:07:38;;;;;;;0.40;0.40;;;6.80;99.90;;;;;;5031824;28;20208;-77
2022/01/22 13:10:08;;;;;;;0.40;0.40;;;6.80;99.90;;;;;;5031387;28;20576;-77
2022/01/22 13:12:36;;;;;;;1.80;1.70;;;6.80;99.90;;;;;;5031887;28;20812;-76
2022/01/22 13:15:04;;;;;;;2.80;2.65;;;6.80;99.90;;;;;;5031731;28;20230;-77
2022/01/22 13:17:33;;;;;;;0.52;0.52;;;6.80;99.90;;;;;;5032188;28;20201;-77
2022/01/22 13:20:02;;;;;;;0.40;0.40;;;6.70;99.90;;;;;;5031443;28;20197;-77
2022/01/22 13:22:32;;;;;;;3.35;2.30;;;6.70;99.90;;;;;;5031572;28;20199;-77
2022/01/22 13:25:08;;;;;;;1.75;1.70;;;6.80;99.90;;;;;;5031040;28;20735;-77
2022/01/22 13:27:35;;;;;;;0.95;0.95;;;6.80;99.90;;;;;;5032045;28;20569;-77
2022/01/22 13:30:02;;;;;;;0.50;0.40;;;6.70;99.90;;;;;;5031327;28;20564;-77
2022/01/22 13:32:47;;;;;;;2.78;1.38;;;6.70;99.90;;;;;;5031587;28;20192;-77
2022/01/22 13:35:35;;;;;;;0.85;0.85;;;6.70;99.90;;;;;;5031539;28;20275;-77
2022/01/22 13:49:15;;;;;;;0.40;0.40;;;6.70;99.90;;;;;;5031342;28;20252;-77
2022/01/22 13:51:45;;;;;;;2.50;2.40;;;6.70;99.90;;;;;;5031049;28;20201;-78
2022/01/22 13:54:13;;;;;;;0.40;0.40;;;6.70;99.90;;;;;;5033018;28;20620;-78
2022/01/22 13:56:50;;;;;;;0.40;0.40;;;6.60;99.90;;;;;;5033869;28;20227;-76
2022/01/22 13:59:19;;;;;;;0.40;0.40;;;6.60;99.90;;;;;;5031801;28;20175;-78
2022/01/22 14:02:05;;;;;;;0.40;0.40;;;6.60;99.90;;;;;;5034400;28;20208;-75
2022/01/22 14:04:52;;;;;;;1.20;1.20;;;6.60;99.90;;;;;;5031379;28;20198;-76
2022/01/22 14:07:31;;;;;;;10.18;3.47;;;6.60;99.90;;;;;;5031074;28;20190;-76
2022/01/22 14:10:00;;;;;;;0.40;0.40;;;6.60;99.90;;;;;;5031053;28;20736;-74
2022/01/22 14:12:32;;;;;;;0.40;0.40;;;6.60;99.90;;;;;;5031283;28;20550;-76
2022/01/22 14:15:06;;;;;;;0.95;0.95;;;6.60;99.90;;;;;;5031193;28;20259;-75
2022/01/22 14:17:39;;;;;;;0.68;0.68;;;6.60;99.90;;;;;;5032030;28;20381;-76
2022/01/22 14:20:09;;;;;;;0.40;0.38;;;6.60;99.90;;;;;;5031330;28;20230;-77
2022/01/22 14:23:03;;;;;;;0.40;0.30;;;6.50;99.90;;;;;;5031487;28;20179;-76
2022/01/22 14:25:31;;;;;;;0.40;0.38;;;6.50;99.90;;;;;;5031067;28;20215;-76
2022/01/22 14:28:04;;;;;;;0.40;0.40;;;6.50;99.90;;;;;;5031992;28;20202;-79
2022/01/22 14:30:33;;;;;;;0.40;0.40;;;6.50;99.90;;;;;;5032112;28;20581;-78